sensor_id;sensor_type;location;lat;lon;timestamp;pressure;altitude;pressure_sealevel;temperature;humidity
76592;BME280;65481;47.600;19.682;2023-06-14T00:02:51;100026.94;;;13.59;100.00
76592;BME280;65481;47.600;19.682;2023-06-14T00:07:52;100026.28;;;13.47;100.00
76592;BME280;65481;47.600;19.682;2023-06-14T00:12:53;100031.47;;;13.37;100.00
76592;BME280;65481;47.600;19.682;2023-06-14T00:17:54;100034.56;;;13.28;100.00
76592;BME280;65481;47.600;19.682;2023-06-14T00:22:55;100028.97;;;13.25;100.00
76592;BME280;65481;47.600;19.682;2023-06-14T00:27:57;100038.03;;;13.29;100.00
76592;BME280;65481;47.600;19.682;2023-06-14T00:32:58;100045.47;;;13.32;100.00
76592;BME280;65481;47.600;19.682;2023-06-14T00:37:59;100033.97;;;13.21;100.00
76592;BME280;65481;47.600;19.682;2023-06-14T00:43:00;100031.00;;;13.17;100.00
76592;BME280;65481;47.600;19.682;2023-06-14T00:48:01;100033.09;;;13.15;100.00
76592;BME280;65481;47.600;19.682;2023-06-14T00:53:02;100032.25;;;13.10;100.00
76592;BME280;65481;47.600;19.682;2023-06-14T00:58:03;100034.13;;;13.09;100.00
76592;BME280;65481;47.600;19.682;2023-06-14T01:03:04;100038.56;;;13.03;100.00
76592;BME280;65481;47.600;19.682;2023-06-14T01:08:27;100036.28;;;12.90;100.00
76592;BME280;65481;47.600;19.682;2023-06-14T01:13:39;100039.88;;;12.79;100.00
76592;BME280;65481;47.600;19.682;2023-06-14T01:18:41;100038.81;;;12.80;100.00
76592;BME280;65481;47.600;19.682;2023-06-14T01:23:42;100026.59;;;12.34;100.00
76592;BME280;65481;47.600;19.682;2023-06-14T01:28:42;100034.00;;;11.98;100.00
76592;BME280;65481;47.600;19.682;2023-06-14T01:33:50;100042.28;;;12.02;100.00
76592;BME280;65481;47.600;19.682;2023-06-14T01:38:52;100041.00;;;12.04;100.00
76592;BME280;65481;47.600;19.682;2023-06-14T01:43:54;100034.34;;;12.02;100.00
76592;BME280;65481;47.600;19.682;2023-06-14T01:48:55;100037.69;;;11.97;100.00
76592;BME280;65481;47.600;19.682;2023-06-14T01:53:56;100043.34;;;12.01;100.00
76592;BME280;65481;47.600;19.682;2023-06-14T01:58:57;100034.16;;;11.91;100.00
76592;BME280;65481;47.600;19.682;2023-06-14T02:03:58;100040.25;;;11.92;100.00
76592;BME280;65481;47.600;19.682;2023-06-14T02:08:58;100044.75;;;11.74;100.00
76592;BME280;65481;47.600;19.682;2023-06-14T02:13:59;100048.50;;;11.61;100.00
76592;BME280;65481;47.600;19.682;2023-06-14T02:19:00;100052.09;;;11.55;100.00
76592;BME280;65481;47.600;19.682;2023-06-14T02:24:00;100045.84;;;11.61;100.00
76592;BME280;65481;47.600;19.682;2023-06-14T02:29:02;100053.06;;;11.66;100.00
76592;BME280;65481;47.600;19.682;2023-06-14T02:34:02;100052.84;;;11.68;100.00
76592;BME280;65481;47.600;19.682;2023-06-14T02:39:03;100051.78;;;11.69;100.00
76592;BME280;65481;47.600;19.682;2023-06-14T02:44:03;100042.00;;;11.69;100.00
76592;BME280;65481;47.600;19.682;2023-06-14T02:49:04;100042.91;;;11.75;100.00
76592;BME280;65481;47.600;19.682;2023-06-14T02:54:05;100041.69;;;11.82;100.00
76592;BME280;65481;47.600;19.682;2023-06-14T02:59:05;100041.13;;;11.80;100.00
76592;BME280;65481;47.600;19.682;2023-06-14T03:04:09;100030.41;;;11.70;100.00
76592;BME280;65481;47.600;19.682;2023-06-14T03:09:10;100036.97;;;11.68;100.00
76592;BME280;65481;47.600;19.682;2023-06-14T03:14:10;100038.66;;;11.74;100.00
76592;BME280;65481;47.600;19.682;2023-06-14T03:19:11;100033.19;;;11.80;100.00
76592;BME280;65481;47.600;19.682;2023-06-14T03:24:12;100046.19;;;11.82;100.00
76592;BME280;65481;47.600;19.682;2023-06-14T03:29:13;100045.56;;;11.92;100.00
76592;BME280;65481;47.600;19.682;2023-06-14T03:34:13;100049.72;;;11.88;100.00
76592;BME280;65481;47.600;19.682;2023-06-14T03:39:14;100058.13;;;11.85;100.00
76592;BME280;65481;47.600;19.682;2023-06-14T03:44:16;100054.59;;;11.96;100.00
76592;BME280;65481;47.600;19.682;2023-06-14T03:49:18;100052.63;;;12.03;100.00
76592;BME280;65481;47.600;19.682;2023-06-14T03:54:19;100050.94;;;12.14;100.00
76592;BME280;65481;47.600;19.682;2023-06-14T03:59:19;100062.47;;;12.25;100.00
76592;BME280;65481;47.600;19.682;2023-06-14T04:04:20;100063.16;;;12.37;100.00
76592;BME280;65481;47.600;19.682;2023-06-14T04:09:22;100061.53;;;12.53;100.00
76592;BME280;65481;47.600;19.682;2023-06-14T04:14:23;100062.00;;;12.72;100.00
76592;BME280;65481;47.600;19.682;2023-06-14T04:19:24;100059.88;;;12.92;100.00
76592;BME280;65481;47.600;19.682;2023-06-14T04:24:24;100057.94;;;13.09;100.00
76592;BME280;65481;47.600;19.682;2023-06-14T04:29:32;100060.19;;;13.23;100.00
76592;BME280;65481;47.600;19.682;2023-06-14T04:34:32;100070.66;;;13.35;100.00
76592;BME280;65481;47.600;19.682;2023-06-14T04:39:34;100066.78;;;13.42;100.00
76592;BME280;65481;47.600;19.682;2023-06-14T04:44:34;100065.28;;;13.52;100.00
76592;BME280;65481;47.600;19.682;2023-06-14T04:49:38;100072.06;;;13.70;100.00
76592;BME280;65481;47.600;19.682;2023-06-14T04:54:39;100075.41;;;13.87;100.00
76592;BME280;65481;47.600;19.682;2023-06-14T04:59:43;100084.28;;;14.08;100.00
76592;BME280;65481;47.600;19.682;2023-06-14T05:04:44;100084.22;;;14.36;100.00
76592;BME280;65481;47.600;19.682;2023-06-14T05:09:45;100084.16;;;14.68;100.00
76592;BME280;65481;47.600;19.682;2023-06-14T05:14:46;100093.06;;;15.00;100.00
76592;BME280;65481;47.600;19.682;2023-06-14T05:19:46;100096.63;;;15.42;100.00
76592;BME280;65481;47.600;19.682;2023-06-14T05:24:47;100102.56;;;15.85;100.00
76592;BME280;65481;47.600;19.682;2023-06-14T05:29:48;100092.63;;;16.48;96.39
76592;BME280;65481;47.600;19.682;2023-06-14T05:34:49;100098.00;;;17.14;93.16
76592;BME280;65481;47.600;19.682;2023-06-14T05:39:50;100100.88;;;17.67;88.60
76592;BME280;65481;47.600;19.682;2023-06-14T05:44:50;100100.69;;;18.23;83.93
76592;BME280;65481;47.600;19.682;2023-06-14T05:49:51;100097.91;;;18.82;78.98
76592;BME280;65481;47.600;19.682;2023-06-14T05:54:52;100103.28;;;19.25;73.61
76592;BME280;65481;47.600;19.682;2023-06-14T05:59:52;100105.31;;;19.66;69.95
76592;BME280;65481;47.600;19.682;2023-06-14T06:04:52;100095.88;;;20.21;65.86
76592;BME280;65481;47.600;19.682;2023-06-14T06:09:53;100099.50;;;20.86;61.70
76592;BME280;65481;47.600;19.682;2023-06-14T06:14:53;100101.66;;;21.35;59.76
76592;BME280;65481;47.600;19.682;2023-06-14T06:19:54;100108.28;;;21.97;56.21
76592;BME280;65481;47.600;19.682;2023-06-14T06:24:55;100108.59;;;22.36;55.21
76592;BME280;65481;47.600;19.682;2023-06-14T06:29:56;100116.19;;;22.65;54.37
76592;BME280;65481;47.600;19.682;2023-06-14T06:34:56;100125.09;;;23.10;53.21
76592;BME280;65481;47.600;19.682;2023-06-14T06:39:57;100128.66;;;23.46;51.44
76592;BME280;65481;47.600;19.682;2023-06-14T06:44:58;100125.47;;;23.52;50.15
76592;BME280;65481;47.600;19.682;2023-06-14T06:49:58;100114.72;;;23.52;49.34
76592;BME280;65481;47.600;19.682;2023-06-14T06:54:58;100107.81;;;24.16;47.99
76592;BME280;65481;47.600;19.682;2023-06-14T06:59:59;100100.59;;;24.29;47.24
76592;BME280;65481;47.600;19.682;2023-06-14T07:05:00;100111.59;;;24.24;47.31
76592;BME280;65481;47.600;19.682;2023-06-14T07:10:00;100119.91;;;23.84;48.43
76592;BME280;65481;47.600;19.682;2023-06-14T07:15:04;100126.69;;;23.02;50.90
76592;BME280;65481;47.600;19.682;2023-06-14T07:20:05;100116.91;;;23.68;49.21
76592;BME280;65481;47.600;19.682;2023-06-14T07:25:12;100121.41;;;24.59;46.37
76592;BME280;65481;47.600;19.682;2023-06-14T07:30:15;100115.41;;;25.13;44.89
76592;BME280;65481;47.600;19.682;2023-06-14T07:35:16;100117.53;;;25.96;43.33
76592;BME280;65481;47.600;19.682;2023-06-14T07:40:16;100118.97;;;26.39;42.12
76592;BME280;65481;47.600;19.682;2023-06-14T07:45:17;100109.38;;;26.17;42.03
76592;BME280;65481;47.600;19.682;2023-06-14T07:50:19;100110.31;;;25.54;44.63
76592;BME280;65481;47.600;19.682;2023-06-14T07:55:20;100104.34;;;25.94;43.64
76592;BME280;65481;47.600;19.682;2023-06-14T08:00:20;100107.97;;;27.10;41.72
76592;BME280;65481;47.600;19.682;2023-06-14T08:05:21;100118.94;;;27.30;40.59
76592;BME280;65481;47.600;19.682;2023-06-14T08:10:22;100110.91;;;27.90;39.07
76592;BME280;65481;47.600;19.682;2023-06-14T08:15:23;100117.91;;;28.39;37.90
76592;BME280;65481;47.600;19.682;2023-06-14T08:20:23;100110.94;;;28.90;36.96
76592;BME280;65481;47.600;19.682;2023-06-14T08:25:24;100107.59;;;29.56;36.37
76592;BME280;65481;47.600;19.682;2023-06-14T08:30:25;100120.28;;;28.09;38.90
76592;BME280;65481;47.600;19.682;2023-06-14T08:35:25;100111.19;;;26.87;42.11
76592;BME280;65481;47.600;19.682;2023-06-14T08:40:27;100112.19;;;26.58;41.68
76592;BME280;65481;47.600;19.682;2023-06-14T08:45:29;100120.47;;;27.15;40.64
76592;BME280;65481;47.600;19.682;2023-06-14T08:50:32;100126.47;;;28.09;38.70
76592;BME280;65481;47.600;19.682;2023-06-14T08:55:32;100133.03;;;28.56;37.10
76592;BME280;65481;47.600;19.682;2023-06-14T09:00:33;100135.50;;;28.62;36.35
76592;BME280;65481;47.600;19.682;2023-06-14T09:05:34;100143.22;;;28.28;36.05
76592;BME280;65481;47.600;19.682;2023-06-14T09:10:35;100143.63;;;28.62;35.46
76592;BME280;65481;47.600;19.682;2023-06-14T09:15:37;100143.53;;;29.10;34.14
76592;BME280;65481;47.600;19.682;2023-06-14T09:20:37;100139.44;;;29.79;33.40
76592;BME280;65481;47.600;19.682;2023-06-14T09:25:42;100137.78;;;28.95;34.67
76592;BME280;65481;47.600;19.682;2023-06-14T09:30:43;100139.00;;;27.98;37.13
76592;BME280;65481;47.600;19.682;2023-06-14T09:35:51;100143.94;;;28.92;37.36
76592;BME280;65481;47.600;19.682;2023-06-14T09:40:51;100136.81;;;29.04;35.31
76592;BME280;65481;47.600;19.682;2023-06-14T09:45:54;100126.00;;;29.07;34.19
76592;BME280;65481;47.600;19.682;2023-06-14T09:50:56;100121.19;;;30.26;32.71
76592;BME280;65481;47.600;19.682;2023-06-14T09:55:58;100129.19;;;29.91;32.33
76592;BME280;65481;47.600;19.682;2023-06-14T10:00:59;100110.59;;;29.51;34.01
76592;BME280;65481;47.600;19.682;2023-06-14T10:06:03;100112.78;;;30.08;32.12
76592;BME280;65481;47.600;19.682;2023-06-14T10:11:07;100100.19;;;30.49;31.44
76592;BME280;65481;47.600;19.682;2023-06-14T10:16:23;100091.50;;;30.97;29.93
76592;BME280;65481;47.600;19.682;2023-06-14T10:21:49;100090.63;;;30.09;32.83
76592;BME280;65481;47.600;19.682;2023-06-14T10:26:56;100091.44;;;28.68;33.55
76592;BME280;65481;47.600;19.682;2023-06-14T10:31:59;100105.34;;;27.55;34.45
76592;BME280;65481;47.600;19.682;2023-06-14T10:37:04;100106.84;;;27.11;33.94
76592;BME280;65481;47.600;19.682;2023-06-14T10:42:05;100093.44;;;27.59;34.20
76592;BME280;65481;47.600;19.682;2023-06-14T10:47:08;100089.88;;;27.14;35.02
76592;BME280;65481;47.600;19.682;2023-06-14T10:52:16;100099.22;;;28.34;33.18
76592;BME280;65481;47.600;19.682;2023-06-14T10:57:19;100094.59;;;28.70;33.25
76592;BME280;65481;47.600;19.682;2023-06-14T11:12:36;100074.19;;;29.16;31.26
76592;BME280;65481;47.600;19.682;2023-06-14T11:17:37;100071.25;;;29.05;31.39
76592;BME280;65481;47.600;19.682;2023-06-14T11:22:41;100074.97;;;27.93;31.92
76592;BME280;65481;47.600;19.682;2023-06-14T11:27:42;100061.09;;;29.22;30.48
76592;BME280;65481;47.600;19.682;2023-06-14T11:32:50;100059.63;;;30.14;29.42
76592;BME280;65481;47.600;19.682;2023-06-14T11:37:56;100058.72;;;30.60;29.88
76592;BME280;65481;47.600;19.682;2023-06-14T11:43:01;100066.28;;;30.70;28.88
76592;BME280;65481;47.600;19.682;2023-06-14T11:48:02;100057.34;;;29.46;28.43
76592;BME280;65481;47.600;19.682;2023-06-14T11:53:02;100051.03;;;28.83;28.77
76592;BME280;65481;47.600;19.682;2023-06-14T11:58:07;100050.53;;;28.77;29.29
76592;BME280;65481;47.600;19.682;2023-06-14T12:03:08;100047.72;;;29.32;28.39
76592;BME280;65481;47.600;19.682;2023-06-14T12:08:09;100044.09;;;29.44;28.03
76592;BME280;65481;47.600;19.682;2023-06-14T12:13:10;100046.88;;;29.71;28.83
76592;BME280;65481;47.600;19.682;2023-06-14T12:18:11;100051.25;;;29.99;29.22
76592;BME280;65481;47.600;19.682;2023-06-14T12:23:11;100048.59;;;30.30;28.04
76592;BME280;65481;47.600;19.682;2023-06-14T12:28:12;100051.00;;;29.85;27.62
76592;BME280;65481;47.600;19.682;2023-06-14T12:33:12;100048.00;;;29.94;27.35
76592;BME280;65481;47.600;19.682;2023-06-14T12:38:13;100048.66;;;29.83;26.91
76592;BME280;65481;47.600;19.682;2023-06-14T12:43:14;100039.31;;;29.18;27.60
76592;BME280;65481;47.600;19.682;2023-06-14T12:48:15;100049.00;;;29.82;28.26
76592;BME280;65481;47.600;19.682;2023-06-14T12:53:16;100040.25;;;30.19;26.74
76592;BME280;65481;47.600;19.682;2023-06-14T12:58:17;100040.00;;;30.01;27.17
76592;BME280;65481;47.600;19.682;2023-06-14T13:03:19;100045.41;;;30.24;26.56
76592;BME280;65481;47.600;19.682;2023-06-14T13:08:20;100031.31;;;29.95;25.94
76592;BME280;65481;47.600;19.682;2023-06-14T13:13:21;100030.94;;;29.46;27.35
76592;BME280;65481;47.600;19.682;2023-06-14T13:18:21;100029.91;;;29.12;26.96
76592;BME280;65481;47.600;19.682;2023-06-14T13:23:22;100033.97;;;29.02;26.98
76592;BME280;65481;47.600;19.682;2023-06-14T13:28:22;100032.06;;;29.26;28.40
76592;BME280;65481;47.600;19.682;2023-06-14T13:33:22;100032.19;;;28.90;28.31
76592;BME280;65481;47.600;19.682;2023-06-14T13:38:24;100033.47;;;28.96;29.54
76592;BME280;65481;47.600;19.682;2023-06-14T13:43:25;100037.00;;;28.61;30.35
76592;BME280;65481;47.600;19.682;2023-06-14T13:48:25;100026.25;;;27.97;29.72
76592;BME280;65481;47.600;19.682;2023-06-14T13:53:26;100025.47;;;27.36;29.98
76592;BME280;65481;47.600;19.682;2023-06-14T13:58:26;100018.91;;;27.65;31.44
76592;BME280;65481;47.600;19.682;2023-06-14T14:03:27;100019.16;;;27.32;33.26
76592;BME280;65481;47.600;19.682;2023-06-14T14:08:27;100020.63;;;26.72;33.53
76592;BME280;65481;47.600;19.682;2023-06-14T14:13:28;100021.66;;;27.09;32.95
76592;BME280;65481;47.600;19.682;2023-06-14T14:18:28;100028.16;;;26.79;33.49
76592;BME280;65481;47.600;19.682;2023-06-14T14:23:29;100019.72;;;26.68;33.24
76592;BME280;65481;47.600;19.682;2023-06-14T14:28:31;100027.06;;;27.09;34.15
76592;BME280;65481;47.600;19.682;2023-06-14T14:33:32;100033.22;;;27.50;33.63
76592;BME280;65481;47.600;19.682;2023-06-14T14:38:35;100030.59;;;27.54;32.46
76592;BME280;65481;47.600;19.682;2023-06-14T14:43:35;100029.13;;;27.72;31.57
76592;BME280;65481;47.600;19.682;2023-06-14T14:48:36;100020.81;;;27.97;31.65
76592;BME280;65481;47.600;19.682;2023-06-14T14:53:36;100019.34;;;28.16;32.75
76592;BME280;65481;47.600;19.682;2023-06-14T14:58:37;100017.59;;;27.91;32.57
76592;BME280;65481;47.600;19.682;2023-06-14T15:03:37;100013.81;;;28.12;32.24
76592;BME280;65481;47.600;19.682;2023-06-14T15:08:38;100008.13;;;28.17;32.37
76592;BME280;65481;47.600;19.682;2023-06-14T15:13:38;100010.84;;;28.01;32.08
76592;BME280;65481;47.600;19.682;2023-06-14T15:18:39;100009.91;;;27.77;32.13
76592;BME280;65481;47.600;19.682;2023-06-14T15:23:39;100007.72;;;26.94;33.28
76592;BME280;65481;47.600;19.682;2023-06-14T15:28:40;100004.38;;;26.85;33.88
76592;BME280;65481;47.600;19.682;2023-06-14T15:33:40;100003.97;;;26.58;34.44
76592;BME280;65481;47.600;19.682;2023-06-14T15:38:41;99997.16;;;26.23;35.17
76592;BME280;65481;47.600;19.682;2023-06-14T15:43:41;100006.19;;;26.15;35.13
76592;BME280;65481;47.600;19.682;2023-06-14T15:48:42;100007.19;;;26.10;35.18
76592;BME280;65481;47.600;19.682;2023-06-14T15:53:43;100009.75;;;25.94;35.03
76592;BME280;65481;47.600;19.682;2023-06-14T15:58:43;100003.00;;;25.76;34.85
76592;BME280;65481;47.600;19.682;2023-06-14T16:03:44;100005.09;;;25.58;34.45
76592;BME280;65481;47.600;19.682;2023-06-14T16:08:45;100005.84;;;25.12;35.35
76592;BME280;65481;47.600;19.682;2023-06-14T16:13:46;100004.53;;;24.97;34.98
76592;BME280;65481;47.600;19.682;2023-06-14T16:18:46;100005.56;;;24.71;35.61
76592;BME280;65481;47.600;19.682;2023-06-14T16:23:47;100010.00;;;24.67;35.51
76592;BME280;65481;47.600;19.682;2023-06-14T16:28:48;100012.66;;;24.76;35.92
76592;BME280;65481;47.600;19.682;2023-06-14T16:33:49;100023.66;;;24.62;36.38
76592;BME280;65481;47.600;19.682;2023-06-14T16:38:54;100018.78;;;24.34;37.07
76592;BME280;65481;47.600;19.682;2023-06-14T16:43:55;100023.69;;;24.32;37.47
76592;BME280;65481;47.600;19.682;2023-06-14T16:48:56;100029.84;;;24.32;37.54
76592;BME280;65481;47.600;19.682;2023-06-14T16:53:57;100039.31;;;24.17;38.08
76592;BME280;65481;47.600;19.682;2023-06-14T16:58:58;100050.25;;;24.12;39.04
76592;BME280;65481;47.600;19.682;2023-06-14T17:03:58;100051.06;;;24.04;39.43
76592;BME280;65481;47.600;19.682;2023-06-14T17:08:59;100053.31;;;23.93;40.39
76592;BME280;65481;47.600;19.682;2023-06-14T17:13:59;100059.84;;;23.83;40.94
76592;BME280;65481;47.600;19.682;2023-06-14T17:19:00;100060.03;;;23.78;41.24
76592;BME280;65481;47.600;19.682;2023-06-14T17:24:00;100076.34;;;23.73;42.83
76592;BME280;65481;47.600;19.682;2023-06-14T17:29:01;100071.97;;;23.51;44.28
76592;BME280;65481;47.600;19.682;2023-06-14T17:34:02;100073.09;;;23.23;45.48
76592;BME280;65481;47.600;19.682;2023-06-14T17:39:03;100080.31;;;23.05;46.87
76592;BME280;65481;47.600;19.682;2023-06-14T17:44:03;100083.63;;;22.93;47.90
76592;BME280;65481;47.600;19.682;2023-06-14T17:49:04;100085.81;;;22.82;48.70
76592;BME280;65481;47.600;19.682;2023-06-14T17:54:04;100100.06;;;22.74;49.79
76592;BME280;65481;47.600;19.682;2023-06-14T17:59:07;100092.91;;;22.61;50.34
76592;BME280;65481;47.600;19.682;2023-06-14T18:04:07;100100.47;;;22.50;50.71
76592;BME280;65481;47.600;19.682;2023-06-14T18:09:08;100092.88;;;22.43;51.16
76592;BME280;65481;47.600;19.682;2023-06-14T18:14:09;100093.72;;;22.30;52.29
76592;BME280;65481;47.600;19.682;2023-06-14T18:19:09;100093.97;;;22.11;52.73
76592;BME280;65481;47.600;19.682;2023-06-14T18:29:11;100103.47;;;21.85;53.30
76592;BME280;65481;47.600;19.682;2023-06-14T18:34:11;100100.84;;;21.71;53.86
76592;BME280;65481;47.600;19.682;2023-06-14T18:39:12;100101.13;;;21.47;54.92
76592;BME280;65481;47.600;19.682;2023-06-14T18:44:13;100110.91;;;21.29;56.07
76592;BME280;65481;47.600;19.682;2023-06-14T18:49:13;100122.56;;;21.10;57.37
76592;BME280;65481;47.600;19.682;2023-06-14T18:54:14;100126.31;;;20.86;58.06
76592;BME280;65481;47.600;19.682;2023-06-14T18:59:14;100132.72;;;20.71;58.55
76592;BME280;65481;47.600;19.682;2023-06-14T19:04:15;100134.22;;;20.64;58.32
76592;BME280;65481;47.600;19.682;2023-06-14T19:09:16;100142.25;;;20.50;59.02
76592;BME280;65481;47.600;19.682;2023-06-14T19:14:18;100157.94;;;20.42;60.44
76592;BME280;65481;47.600;19.682;2023-06-14T19:19:19;100159.59;;;20.38;61.21
76592;BME280;65481;47.600;19.682;2023-06-14T19:24:22;100159.31;;;20.40;60.81
76592;BME280;65481;47.600;19.682;2023-06-14T19:29:23;100162.16;;;20.30;61.74
76592;BME280;65481;47.600;19.682;2023-06-14T19:34:23;100158.50;;;20.25;61.65
76592;BME280;65481;47.600;19.682;2023-06-14T19:39:24;100170.28;;;20.24;61.80
76592;BME280;65481;47.600;19.682;2023-06-14T19:44:25;100169.03;;;20.03;62.50
76592;BME280;65481;47.600;19.682;2023-06-14T19:49:25;100166.22;;;19.94;62.64
76592;BME280;65481;47.600;19.682;2023-06-14T19:54:26;100168.75;;;19.85;63.24
76592;BME280;65481;47.600;19.682;2023-06-14T19:59:26;100171.84;;;19.73;63.59
76592;BME280;65481;47.600;19.682;2023-06-14T20:04:27;100173.97;;;19.57;64.41
76592;BME280;65481;47.600;19.682;2023-06-14T20:09:28;100174.47;;;19.21;66.15
76592;BME280;65481;47.600;19.682;2023-06-14T20:14:32;100172.91;;;18.96;67.81
76592;BME280;65481;47.600;19.682;2023-06-14T20:19:33;100175.28;;;18.68;69.47
76592;BME280;65481;47.600;19.682;2023-06-14T20:24:33;100170.28;;;18.61;69.96
76592;BME280;65481;47.600;19.682;2023-06-14T20:29:34;100171.28;;;18.41;70.95
76592;BME280;65481;47.600;19.682;2023-06-14T20:34:34;100167.44;;;18.23;72.30
76592;BME280;65481;47.600;19.682;2023-06-14T20:39:35;100170.53;;;18.06;73.54
76592;BME280;65481;47.600;19.682;2023-06-14T20:44:35;100169.19;;;18.03;73.77
76592;BME280;65481;47.600;19.682;2023-06-14T20:49:41;100175.13;;;17.95;73.99
76592;BME280;65481;47.600;19.682;2023-06-14T20:54:41;100182.66;;;17.82;74.67
76592;BME280;65481;47.600;19.682;2023-06-14T20:59:42;100175.59;;;17.62;75.56
76592;BME280;65481;47.600;19.682;2023-06-14T21:04:44;100180.94;;;17.57;75.66
76592;BME280;65481;47.600;19.682;2023-06-14T21:09:44;100180.78;;;17.38;76.74
76592;BME280;65481;47.600;19.682;2023-06-14T21:14:45;100179.22;;;17.32;77.24
76592;BME280;65481;47.600;19.682;2023-06-14T21:19:45;100179.75;;;17.29;77.48
76592;BME280;65481;47.600;19.682;2023-06-14T21:24:46;100171.81;;;17.18;77.59
76592;BME280;65481;47.600;19.682;2023-06-14T21:29:46;100179.00;;;17.18;77.78
76592;BME280;65481;47.600;19.682;2023-06-14T21:34:49;100180.13;;;17.12;78.62
76592;BME280;65481;47.600;19.682;2023-06-14T21:39:50;100172.94;;;17.07;79.00
76592;BME280;65481;47.600;19.682;2023-06-14T21:44:50;100173.72;;;17.07;78.42
76592;BME280;65481;47.600;19.682;2023-06-14T21:49:53;100177.22;;;16.98;78.18
76592;BME280;65481;47.600;19.682;2023-06-14T21:54:54;100180.97;;;16.86;78.61
76592;BME280;65481;47.600;19.682;2023-06-14T21:59:58;100175.66;;;16.71;79.65
76592;BME280;65481;47.600;19.682;2023-06-14T22:04:58;100179.41;;;16.59;80.73
76592;BME280;65481;47.600;19.682;2023-06-14T22:10:00;100178.09;;;16.52;81.23
76592;BME280;65481;47.600;19.682;2023-06-14T22:15:01;100175.69;;;16.34;81.64
76592;BME280;65481;47.600;19.682;2023-06-14T22:20:05;100178.66;;;16.23;82.91
76592;BME280;65481;47.600;19.682;2023-06-14T22:25:07;100181.31;;;16.17;83.21
76592;BME280;65481;47.600;19.682;2023-06-14T22:30:09;100189.28;;;16.07;83.65
76592;BME280;65481;47.600;19.682;2023-06-14T22:35:10;100184.78;;;15.97;83.92
76592;BME280;65481;47.600;19.682;2023-06-14T22:40:11;100177.84;;;15.96;83.88
76592;BME280;65481;47.600;19.682;2023-06-14T22:45:12;100180.97;;;15.72;85.31
76592;BME280;65481;47.600;19.682;2023-06-14T22:50:17;100178.28;;;15.57;86.52
76592;BME280;65481;47.600;19.682;2023-06-14T22:55:17;100180.66;;;15.53;86.94
76592;BME280;65481;47.600;19.682;2023-06-14T23:00:18;100178.25;;;15.41;87.68
76592;BME280;65481;47.600;19.682;2023-06-14T23:05:19;100176.63;;;15.35;88.23
76592;BME280;65481;47.600;19.682;2023-06-14T23:10:19;100178.19;;;15.31;88.58
76592;BME280;65481;47.600;19.682;2023-06-14T23:15:22;100168.03;;;15.12;89.77
76592;BME280;65481;47.600;19.682;2023-06-14T23:20:24;100169.84;;;15.02;91.27
76592;BME280;65481;47.600;19.682;2023-06-14T23:25:24;100164.44;;;14.86;92.35
76592;BME280;65481;47.600;19.682;2023-06-14T23:30:25;100165.16;;;14.71;93.44
76592;BME280;65481;47.600;19.682;2023-06-14T23:35:26;100150.63;;;14.79;93.43
76592;BME280;65481;47.600;19.682;2023-06-14T23:40:27;100157.22;;;14.76;93.50
76592;BME280;65481;47.600;19.682;2023-06-14T23:45:30;100164.38;;;14.71;93.59
76592;BME280;65481;47.600;19.682;2023-06-14T23:50:33;100157.34;;;14.54;93.88
76592;BME280;65481;47.600;19.682;2023-06-14T23:55:34;100162.75;;;14.32;94.57
